Time;durP1;ratioP1;P1;durP2;ratioP2;P2;SDS_P1;SDS_P2;PMS_P1;PMS_P2;Temp;Humidity;BMP_temperature;BMP_pressure;BME280_temperature;BME280_humidity;BME280_pressure;Samples;Min_cycle;Max_cycle;Signal;HPM_P1;HPM_P2
2021/07/24 00:00:04;;;;;;;;;;;;;;;;;;2138524;66;1981;-70
2021/07/24 00:02:29;;;;;;;;;;;;;;;;;;2140944;59;1263;-71
2021/07/24 00:04:54;;;;;;;;;;;;;;;;;;2138514;67;1142;-69
2021/07/24 00:07:19;;;;;;;;;;;;;;;;;;2138594;67;1287;-71
2021/07/24 00:09:44;;;;;;;;;;;;;;;;;;2139319;67;1118;-70
2021/07/24 00:12:13;;;;;;;;;;;;;;;;;;2138327;67;1203;-73
2021/07/24 00:14:38;;;;;;;;;;;;;;;;;;2139095;66;1169;-73
2021/07/24 00:17:03;;;;;;;;;;;;;;;;;;2140180;59;1476;-73
2021/07/24 00:19:29;;;;;;;;;;;;;;;;;;2139296;66;1974;-70
2021/07/24 00:21:54;;;;;;;;;;;;;;;;;;2139168;67;1222;-73
2021/07/24 00:24:19;;;;;;;;;;;;;;;;;;2138250;66;1225;-72
2021/07/24 00:26:46;;;;;;;;;;;;;;;;;;2139462;66;1214;-72
2021/07/24 00:29:12;;;;;;;;;;;;;;;;;;2138389;66;1111;-73
2021/07/24 00:31:37;;;;;;;;;;;;;;;;;;2139666;67;1333;-71
2021/07/24 00:34:02;;;;;;;;;;;;;;;;;;2139368;67;1146;-73
2021/07/24 00:36:28;;;;;;;;;;;;;;;;;;2138321;67;1251;-72
2021/07/24 00:38:53;;;;;;;;;;;;;;;;;;2139997;67;1930;-71
2021/07/24 00:41:52;;;;;;;;;;;;;;;;;;2139083;66;1135;-74
2021/07/24 00:44:17;;;;;;;;;;;;;;;;;;2143110;66;1292;-73
2021/07/24 00:46:44;;;;;;;;;;;;;;;;;;2138131;67;1229;-73
2021/07/24 00:49:10;;;;;;;;;;;;;;;;;;2143001;59;1325;-73
2021/07/24 00:51:37;;;;;;;;;;;;;;;;;;2140376;67;1404;-72
2021/07/24 00:54:03;;;;;;;;;;;;;;;;;;2139381;67;1242;-72
2021/07/24 00:56:28;;;;;;;;;;;;;;;;;;2139210;67;1276;-72
2021/07/24 00:58:55;;;;;;;;;;;;;;;;;;2139804;67;1921;-73
2021/07/24 01:01:20;;;;;;;;;;;;;;;;;;2140129;59;1332;-72
2021/07/24 01:03:45;;;;;;;;;;;;;;;;;;2139282;67;1274;-73
2021/07/24 01:06:12;;;;;;;;;;;;;;;;;;2137926;67;1227;-73
2021/07/24 01:08:37;;;;;;;;;;;;;;;;;;2140211;66;1699;-73
2021/07/24 01:11:03;;;;;;;;;;;;;;;;;;2139250;66;1152;-73
2021/07/24 01:13:28;;;;;;;;;;;;;;;;;;2139411;67;1177;-72
2021/07/24 01:15:54;;;;;;;;;;;;;;;;;;2139716;58;1167;-70
2021/07/24 01:18:19;;;;;;;;;;;;;;;;;;2144213;66;1933;-73
2021/07/24 01:20:45;;;;;;;;;;;;;;;;;;2139305;67;1303;-72
2021/07/24 01:23:10;;;;;;;;;;;;;;;;;;2138314;67;1171;-73
2021/07/24 01:25:42;;;;;;;;;;;;;;;;;;2138718;67;1138;-72
2021/07/24 01:28:08;;;;;;;;;;;;;;;;;;2138463;67;1304;-72
2021/07/24 01:30:33;;;;;;;;;;;;;;;;;;2138874;66;1127;-73
2021/07/24 01:32:58;;;;;;;;;;;;;;;;;;2139059;67;1159;-71
2021/07/24 01:35:23;;;;;;;;;;;;;;;;;;2138495;67;1150;-71
2021/07/24 01:37:48;;;;;;;;;;;;;;;;;;2139548;67;1250;-73
2021/07/24 01:40:14;;;;;;;;;;;;;;;;;;2138183;66;1995;-71
2021/07/24 01:42:39;;;;;;;;;;;;;;;;;;2139598;66;1168;-74
2021/07/24 01:45:04;;;;;;;;;;;;;;;;;;2138427;66;1340;-70
2021/07/24 01:47:29;;;;;;;;;;;;;;;;;;2139515;66;1212;-73
2021/07/24 01:52:51;;;;;;;;;;;;;;;;;;2140498;59;1141;-73
2021/07/24 01:55:28;;;;;;;;;;;;;;;;;;2140617;66;1320;-72
2021/07/24 01:57:53;;;;;;;;;;;;;;;;;;2137866;67;1253;-72
2021/07/24 02:00:19;;;;;;;;;;;;;;;;;;2141785;66;1928;-72
2021/07/24 02:02:46;;;;;;;;;;;;;;;;;;2140385;59;1513;-72
2021/07/24 02:05:17;;;;;;;;;;;;;;;;;;2138382;67;1233;-73
2021/07/24 02:07:45;;;;;;;;;;;;;;;;;;2139900;67;1295;-72
2021/07/24 02:10:11;;;;;;;;;;;;;;;;;;2138271;67;1187;-72
2021/07/24 02:12:36;;;;;;;;;;;;;;;;;;2140092;67;1166;-73
2021/07/24 02:15:02;;;;;;;;;;;;;;;;;;2141003;59;2283;-71
2021/07/24 02:17:31;;;;;;;;;;;;;;;;;;2141238;58;1389;-73
2021/07/24 02:20:01;;;;;;;;;;;;;;;;;;2139028;67;1925;-73
2021/07/24 02:22:26;;;;;;;;;;;;;;;;;;2138127;59;1152;-71
2021/07/24 02:24:52;;;;;;;;;;;;;;;;;;2138691;59;1151;-72
2021/07/24 02:27:17;;;;;;;;;;;;;;;;;;2138173;67;2059;-72
2021/07/24 02:29:42;;;;;;;;;;;;;;;;;;2148363;66;1418;-71
2021/07/24 02:32:08;;;;;;;;;;;;;;;;;;2139786;59;1453;-72
2021/07/24 02:34:33;;;;;;;;;;;;;;;;;;2138527;66;1190;-71
2021/07/24 02:36:58;;;;;;;;;;;;;;;;;;2142253;66;1326;-71
2021/07/24 02:39:23;;;;;;;;;;;;;;;;;;2146694;66;1980;-70
2021/07/24 02:41:49;;;;;;;;;;;;;;;;;;2138993;61;1179;-70
2021/07/24 02:44:14;;;;;;;;;;;;;;;;;;2138245;67;1167;-72
2021/07/24 02:46:39;;;;;;;;;;;;;;;;;;2138360;66;1206;-71
2021/07/24 02:49:04;;;;;;;;;;;;;;;;;;2142674;59;1390;-74
2021/07/24 02:51:29;;;;;;;;;;;;;;;;;;2141636;67;1467;-71
2021/07/24 02:53:54;;;;;;;;;;;;;;;;;;2141021;66;1445;-72
2021/07/24 02:56:19;;;;;;;;;;;;;;;;;;2148971;58;1429;-71
2021/07/24 02:58:45;;;;;;;;;;;;;;;;;;2143161;66;1927;-71
2021/07/24 03:01:10;;;;;;;;;;;;;;;;;;2139292;59;1266;-72
2021/07/24 03:03:35;;;;;;;;;;;;;;;;;;2138252;67;1146;-71
2021/07/24 03:06:01;;;;;;;;;;;;;;;;;;2139644;67;1262;-73
2021/07/24 03:08:26;;;;;;;;;;;;;;;;;;2138469;59;1234;-71
2021/07/24 03:10:51;;;;;;;;;;;;;;;;;;2138970;67;1112;-71
2021/07/24 03:13:16;;;;;;;;;;;;;;;;;;2138350;66;1284;-72
2021/07/24 03:15:41;;;;;;;;;;;;;;;;;;2146111;58;1271;-71
2021/07/24 03:18:07;;;;;;;;;;;;;;;;;;2140504;66;1931;-72
2021/07/24 03:20:32;;;;;;;;;;;;;;;;;;2138644;67;1186;-71
2021/07/24 03:22:59;;;;;;;;;;;;;;;;;;2138677;67;1190;-72
2021/07/24 03:25:25;;;;;;;;;;;;;;;;;;2138440;67;1166;-71
2021/07/24 03:27:50;;;;;;;;;;;;;;;;;;2136701;67;1296;-71
2021/07/24 03:30:15;;;;;;;;;;;;;;;;;;2138601;67;1274;-72
2021/07/24 03:32:40;;;;;;;;;;;;;;;;;;2138684;67;1059;-71
2021/07/24 03:35:05;;;;;;;;;;;;;;;;;;2138919;67;1194;-73
2021/07/24 03:37:31;;;;;;;;;;;;;;;;;;2143569;66;1394;-71
2021/07/24 03:39:56;;;;;;;;;;;;;;;;;;2139888;67;1924;-72
2021/07/24 03:42:21;;;;;;;;;;;;;;;;;;2138086;66;1098;-72
2021/07/24 03:44:46;;;;;;;;;;;;;;;;;;2137985;66;1202;-72
2021/07/24 03:47:11;;;;;;;;;;;;;;;;;;2138450;67;1263;-71
2021/07/24 03:49:36;;;;;;;;;;;;;;;;;;2140516;59;1430;-71
2021/07/24 03:52:02;;;;;;;;;;;;;;;;;;2138542;67;1036;-71
2021/07/24 03:54:27;;;;;;;;;;;;;;;;;;2139177;59;1151;-71
2021/07/24 03:56:52;;;;;;;;;;;;;;;;;;2139096;67;1396;-71
2021/07/24 03:59:17;;;;;;;;;;;;;;;;;;2139351;66;1923;-71
2021/07/24 04:01:43;;;;;;;;;;;;;;;;;;2140271;59;1373;-72
2021/07/24 04:04:08;;;;;;;;;;;;;;;;;;2138349;67;1012;-71
2021/07/24 04:06:34;;;;;;;;;;;;;;;;;;2139166;67;1228;-72
2021/07/24 04:09:00;;;;;;;;;;;;;;;;;;2138483;60;1142;-72
2021/07/24 04:11:25;;;;;;;;;;;;;;;;;;2139253;67;1151;-71
2021/07/24 04:13:51;;;;;;;;;;;;;;;;;;2138612;66;1194;-70
2021/07/24 04:16:16;;;;;;;;;;;;;;;;;;2142583;59;1507;-71
2021/07/24 04:18:41;;;;;;;;;;;;;;;;;;2139414;67;1927;-72
2021/07/24 04:21:07;;;;;;;;;;;;;;;;;;2139241;67;1065;-71
2021/07/24 04:23:32;;;;;;;;;;;;;;;;;;2139179;67;1141;-71
2021/07/24 04:25:57;;;;;;;;;;;;;;;;;;2138504;67;1187;-72
2021/07/24 04:28:22;;;;;;;;;;;;;;;;;;2139042;67;1233;-71
2021/07/24 04:30:48;;;;;;;;;;;;;;;;;;2138339;67;1134;-72
2021/07/24 04:33:13;;;;;;;;;;;;;;;;;;2139890;67;1230;-71
2021/07/24 04:35:43;;;;;;;;;;;;;;;;;;2140332;67;1194;-71
2021/07/24 04:38:08;;;;;;;;;;;;;;;;;;2138719;67;1202;-72
2021/07/24 04:40:33;;;;;;;;;;;;;;;;;;2137689;66;1965;-72
2021/07/24 04:42:58;;;;;;;;;;;;;;;;;;2138971;67;1597;-72
2021/07/24 04:45:23;;;;;;;;;;;;;;;;;;2139943;66;1126;-70
2021/07/24 04:47:48;;;;;;;;;;;;;;;;;;2139586;67;1392;-72
2021/07/24 04:50:14;;;;;;;;;;;;;;;;;;2139354;59;1487;-71
2021/07/24 04:52:39;;;;;;;;;;;;;;;;;;2144258;66;1061;-73
2021/07/24 04:55:04;;;;;;;;;;;;;;;;;;2140192;66;1631;-72
2021/07/24 04:57:30;;;;;;;;;;;;;;;;;;2142794;66;1293;-71
2021/07/24 04:59:56;;;;;;;;;;;;;;;;;;2138407;66;1933;-72
2021/07/24 05:02:21;;;;;;;;;;;;;;;;;;2140498;59;1313;-73
2021/07/24 05:04:47;;;;;;;;;;;;;;;;;;2138393;67;1187;-72
2021/07/24 05:07:13;;;;;;;;;;;;;;;;;;2138379;67;1145;-70
2021/07/24 05:09:39;;;;;;;;;;;;;;;;;;2138984;67;1113;-66
2021/07/24 05:12:04;;;;;;;;;;;;;;;;;;2138168;67;1217;-67
2021/07/24 05:14:30;;;;;;;;;;;;;;;;;;2140416;59;1735;-67
2021/07/24 05:17:11;;;;;;;;;;;;;;;;;;2140050;59;1458;-66
2021/07/24 05:19:44;;;;;;;;;;;;;;;;;;2140525;67;1944;-67
2021/07/24 05:22:10;;;;;;;;;;;;;;;;;;2139222;67;1470;-66
2021/07/24 05:24:36;;;;;;;;;;;;;;;;;;2139686;67;1153;-66
2021/07/24 05:27:01;;;;;;;;;;;;;;;;;;2138984;67;1249;-67
2021/07/24 05:29:27;;;;;;;;;;;;;;;;;;2138899;67;1196;-66
2021/07/24 05:31:52;;;;;;;;;;;;;;;;;;2138964;67;1150;-66
2021/07/24 05:34:18;;;;;;;;;;;;;;;;;;2139916;67;1162;-66
2021/07/24 05:36:43;;;;;;;;;;;;;;;;;;2137843;67;1194;-66
2021/07/24 05:39:08;;;;;;;;;;;;;;;;;;2139077;67;1948;-65
2021/07/24 05:41:33;;;;;;;;;;;;;;;;;;2139864;66;1210;-66
2021/07/24 05:43:58;;;;;;;;;;;;;;;;;;2139286;67;1161;-66
2021/07/24 05:46:23;;;;;;;;;;;;;;;;;;2137583;67;1275;-67
2021/07/24 05:48:48;;;;;;;;;;;;;;;;;;2140119;59;1352;-67
2021/07/24 05:51:14;;;;;;;;;;;;;;;;;;2139446;67;1754;-67
2021/07/24 05:53:39;;;;;;;;;;;;;;;;;;2139965;66;1092;-67
2021/07/24 05:56:04;;;;;;;;;;;;;;;;;;2138678;67;1248;-67
2021/07/24 05:58:30;;;;;;;;;;;;;;;;;;2139936;67;1923;-67
2021/07/24 06:00:55;;;;;;;;;;;;;;;;;;2144315;59;1267;-67
2021/07/24 06:03:21;;;;;;;;;;;;;;;;;;2139014;67;1167;-67
2021/07/24 06:05:46;;;;;;;;;;;;;;;;;;2138298;67;1225;-68
2021/07/24 06:08:11;;;;;;;;;;;;;;;;;;2138307;67;1206;-69
2021/07/24 06:10:36;;;;;;;;;;;;;;;;;;2139903;59;1788;-68
2021/07/24 06:13:01;;;;;;;;;;;;;;;;;;2141461;67;1518;-70
2021/07/24 06:15:27;;;;;;;;;;;;;;;;;;2140906;67;1481;-69
2021/07/24 06:17:52;;;;;;;;;;;;;;;;;;2141166;59;1304;-69
2021/07/24 06:20:18;;;;;;;;;;;;;;;;;;2138755;67;1981;-69
2021/07/24 06:22:43;;;;;;;;;;;;;;;;;;2141081;67;1135;-69
2021/07/24 06:25:09;;;;;;;;;;;;;;;;;;2138720;67;1202;-69
2021/07/24 06:27:34;;;;;;;;;;;;;;;;;;2139180;59;2609;-68
2021/07/24 06:30:00;;;;;;;;;;;;;;;;;;2140584;67;1032;-68
2021/07/24 06:32:25;;;;;;;;;;;;;;;;;;2139588;59;2132;-67
2021/07/24 06:34:50;;;;;;;;;;;;;;;;;;2141355;67;1308;-67
2021/07/24 06:37:15;;;;;;;;;;;;;;;;;;2140401;67;1468;-68
2021/07/24 06:39:40;;;;;;;;;;;;;;;;;;2139581;67;1992;-68
2021/07/24 06:42:06;;;;;;;;;;;;;;;;;;2140495;67;1269;-67
2021/07/24 06:44:31;;;;;;;;;;;;;;;;;;2138895;66;1185;-68
2021/07/24 06:46:57;;;;;;;;;;;;;;;;;;2140138;66;1358;-67
2021/07/24 06:49:22;;;;;;;;;;;;;;;;;;2140412;59;1270;-67
2021/07/24 06:51:47;;;;;;;;;;;;;;;;;;2141130;67;1156;-68
2021/07/24 06:54:12;;;;;;;;;;;;;;;;;;2138805;67;1148;-70
2021/07/24 06:56:37;;;;;;;;;;;;;;;;;;2139812;67;1299;-69
2021/07/24 06:59:03;;;;;;;;;;;;;;;;;;2138538;67;1991;-68
2021/07/24 07:01:28;;;;;;;;;;;;;;;;;;2140247;59;1349;-68
2021/07/24 07:03:53;;;;;;;;;;;;;;;;;;2138955;67;1179;-68
2021/07/24 07:06:18;;;;;;;;;;;;;;;;;;2138597;67;1218;-69
2021/07/24 07:08:43;;;;;;;;;;;;;;;;;;2138894;67;1253;-68
2021/07/24 07:11:08;;;;;;;;;;;;;;;;;;2138591;67;1115;-69
2021/07/24 07:13:34;;;;;;;;;;;;;;;;;;2138936;67;1233;-69
2021/07/24 07:16:03;;;;;;;;;;;;;;;;;;2143105;59;1279;-69
2021/07/24 07:18:29;;;;;;;;;;;;;;;;;;2138756;66;1974;-70
2021/07/24 07:20:54;;;;;;;;;;;;;;;;;;2139268;67;2069;-69
2021/07/24 07:23:19;;;;;;;;;;;;;;;;;;2140378;67;2216;-70
2021/07/24 07:25:44;;;;;;;;;;;;;;;;;;2141652;67;1194;-70
2021/07/24 07:28:10;;;;;;;;;;;;;;;;;;2139716;59;2185;-69
2021/07/24 07:30:35;;;;;;;;;;;;;;;;;;2142527;67;1434;-71
2021/07/24 07:33:00;;;;;;;;;;;;;;;;;;2143260;67;1601;-71
2021/07/24 07:35:25;;;;;;;;;;;;;;;;;;2142246;67;1099;-70
2021/07/24 07:37:51;;;;;;;;;;;;;;;;;;2142883;67;1381;-71
2021/07/24 07:40:17;;;;;;;;;;;;;;;;;;2140251;66;1984;-72
2021/07/24 07:42:42;;;;;;;;;;;;;;;;;;2139646;59;1134;-71
2021/07/24 07:45:07;;;;;;;;;;;;;;;;;;2138953;67;2007;-71
2021/07/24 07:47:35;;;;;;;;;;;;;;;;;;2138898;66;1261;-71
2021/07/24 07:50:00;;;;;;;;;;;;;;;;;;2141957;59;1501;-70
2021/07/24 07:52:27;;;;;;;;;;;;;;;;;;2140613;67;1159;-72
2021/07/24 07:54:52;;;;;;;;;;;;;;;;;;2140599;66;1158;-72
2021/07/24 07:57:18;;;;;;;;;;;;;;;;;;2139166;67;1276;-71
2021/07/24 07:59:43;;;;;;;;;;;;;;;;;;2139060;67;1940;-72
2021/07/24 08:02:08;;;;;;;;;;;;;;;;;;2141017;59;1438;-70
2021/07/24 08:04:33;;;;;;;;;;;;;;;;;;2136560;66;1334;-71
2021/07/24 08:06:59;;;;;;;;;;;;;;;;;;2139272;66;1206;-71
2021/07/24 08:09:24;;;;;;;;;;;;;;;;;;2139163;67;1206;-71
2021/07/24 08:11:50;;;;;;;;;;;;;;;;;;2139320;58;2129;-72
2021/07/24 08:14:15;;;;;;;;;;;;;;;;;;2143134;53;2009;-68
2021/07/24 08:16:42;;;;;;;;;;;;;;;;;;2141925;59;1990;-68
2021/07/24 08:19:07;;;;;;;;;;;;;;;;;;2143918;59;2122;-68
2021/07/24 08:21:32;;;;;;;;;;;;;;;;;;2144171;59;1895;-67
2021/07/24 08:23:57;;;;;;;;;;;;;;;;;;2144858;59;1426;-67
2021/07/24 08:26:23;;;;;;;;;;;;;;;;;;2145979;59;1798;-68
2021/07/24 08:28:48;;;;;;;;;;;;;;;;;;2143120;59;2057;-68
2021/07/24 08:31:14;;;;;;;;;;;;;;;;;;2145053;59;1120;-68
2021/07/24 08:33:39;;;;;;;;;;;;;;;;;;2145162;59;1948;-68
2021/07/24 08:36:04;;;;;;;;;;;;;;;;;;2144584;66;1045;-68
2021/07/24 08:38:29;;;;;;;;;;;;;;;;;;2145208;66;1920;-68
2021/07/24 08:40:54;;;;;;;;;;;;;;;;;;2142924;66;1195;-68
2021/07/24 08:43:21;;;;;;;;;;;;;;;;;;2145150;66;1173;-68
2021/07/24 08:45:46;;;;;;;;;;;;;;;;;;2142690;66;1180;-68
2021/07/24 08:48:11;;;;;;;;;;;;;;;;;;2144638;59;1201;-68
2021/07/24 08:50:39;;;;;;;;;;;;;;;;;;2145876;66;1655;-68
2021/07/24 08:53:05;;;;;;;;;;;;;;;;;;2141474;66;1116;-68
2021/07/24 08:55:32;;;;;;;;;;;;;;;;;;2143539;66;1371;-68
2021/07/24 08:57:58;;;;;;;;;;;;;;;;;;2144585;66;1082;-68
2021/07/24 09:00:26;;;;;;;;;;;;;;;;;;2142631;66;1924;-68
2021/07/24 09:02:54;;;;;;;;;;;;;;;;;;2143863;59;1919;-68
2021/07/24 09:05:20;;;;;;;;;;;;;;;;;;2144198;66;2111;-68
2021/07/24 09:07:49;;;;;;;;;;;;;;;;;;2144754;66;1155;-68
2021/07/24 09:10:15;;;;;;;;;;;;;;;;;;2144218;66;1279;-68
2021/07/24 09:12:41;;;;;;;;;;;;;;;;;;2142829;59;1853;-68
2021/07/24 09:15:07;;;;;;;;;;;;;;;;;;2143675;59;1384;-68
2021/07/24 09:17:33;;;;;;;;;;;;;;;;;;2143233;59;1196;-68
2021/07/24 09:19:58;;;;;;;;;;;;;;;;;;2143974;66;1939;-68
2021/07/24 09:22:34;;;;;;;;;;;;;;;;;;2144858;66;1169;-68
2021/07/24 09:25:02;;;;;;;;;;;;;;;;;;2143931;66;1197;-68
2021/07/24 09:27:27;;;;;;;;;;;;;;;;;;2144562;66;1190;-68
2021/07/24 09:29:52;;;;;;;;;;;;;;;;;;2141844;66;1198;-68
2021/07/24 09:32:17;;;;;;;;;;;;;;;;;;2143511;66;1334;-68
2021/07/24 09:34:42;;;;;;;;;;;;;;;;;;2143383;66;1182;-69
2021/07/24 09:37:22;;;;;;;;;;;;;;;;;;2143135;66;1077;-68
2021/07/24 09:39:47;;;;;;;;;;;;;;;;;;2141153;66;1964;-68
2021/07/24 09:42:12;;;;;;;;;;;;;;;;;;2143105;66;1240;-68
2021/07/24 09:44:38;;;;;;;;;;;;;;;;;;2143509;66;1210;-68
2021/07/24 09:47:05;;;;;;;;;;;;;;;;;;2138112;66;1158;-69
2021/07/24 09:49:34;;;;;;;;;;;;;;;;;;2145209;59;1890;-68
2021/07/24 09:52:10;;;;;;;;;;;;;;;;;;2143936;59;1695;-68
2021/07/24 09:54:35;;;;;;;;;;;;;;;;;;2143468;59;1767;-68
2021/07/24 09:57:01;;;;;;;;;;;;;;;;;;2142403;59;1462;-67
2021/07/24 09:59:30;;;;;;;;;;;;;;;;;;2142525;66;1915;-66
2021/07/24 10:02:03;;;;;;;;;;;;;;;;;;2143147;59;1373;-66
2021/07/24 10:04:32;;;;;;;;;;;;;;;;;;2141701;66;1203;-66
2021/07/24 10:07:01;;;;;;;;;;;;;;;;;;2142582;59;1648;-66
2021/07/24 10:09:28;;;;;;;;;;;;;;;;;;2143026;66;1136;-66
2021/07/24 10:11:57;;;;;;;;;;;;;;;;;;2142726;66;1158;-66
2021/07/24 10:14:22;;;;;;;;;;;;;;;;;;2145161;59;1612;-68
2021/07/24 10:16:49;;;;;;;;;;;;;;;;;;2143229;66;1561;-68
2021/07/24 10:19:14;;;;;;;;;;;;;;;;;;2142827;66;1921;-66
2021/07/24 10:21:39;;;;;;;;;;;;;;;;;;2142621;66;1146;-69
2021/07/24 10:24:04;;;;;;;;;;;;;;;;;;2144015;66;1189;-66
2021/07/24 10:26:33;;;;;;;;;;;;;;;;;;2142765;66;1246;-66
2021/07/24 10:29:01;;;;;;;;;;;;;;;;;;2142132;59;1980;-66
2021/07/24 10:31:29;;;;;;;;;;;;;;;;;;2143846;66;2164;-66
2021/07/24 10:33:58;;;;;;;;;;;;;;;;;;2144815;66;1426;-66
2021/07/24 10:36:32;;;;;;;;;;;;;;;;;;2142010;66;1126;-66
2021/07/24 10:38:58;;;;;;;;;;;;;;;;;;2141831;66;1924;-66
2021/07/24 10:41:23;;;;;;;;;;;;;;;;;;2142237;66;1092;-65
2021/07/24 10:44:05;;;;;;;;;;;;;;;;;;2142409;67;1196;-65
2021/07/24 10:46:45;;;;;;;;;;;;;;;;;;2142293;67;1192;-66
2021/07/24 10:49:22;;;;;;;;;;;;;;;;;;2144043;59;1941;-65
2021/07/24 10:51:57;;;;;;;;;;;;;;;;;;2143983;66;1588;-66
2021/07/24 10:54:22;;;;;;;;;;;;;;;;;;2143906;66;1183;-66
2021/07/24 10:56:48;;;;;;;;;;;;;;;;;;2143500;67;1323;-65
2021/07/24 10:59:13;;;;;;;;;;;;;;;;;;2143957;67;1988;-66
2021/07/24 11:01:48;;;;;;;;;;;;;;;;;;2143892;59;1938;-66
2021/07/24 11:04:32;;;;;;;;;;;;;;;;;;2140680;58;2254;-67
2021/07/24 11:07:12;;;;;;;;;;;;;;;;;;2139584;58;2666;-66
2021/07/24 11:09:38;;;;;;;;;;;;;;;;;;2142110;66;1740;-66
2021/07/24 11:12:07;;;;;;;;;;;;;;;;;;2143361;66;1747;-67
2021/07/24 11:14:38;;;;;;;;;;;;;;;;;;2142279;58;3102;-66
2021/07/24 11:17:13;;;;;;;;;;;;;;;;;;2143641;66;3598;-66
2021/07/24 11:19:39;;;;;;;;;;;;;;;;;;2143462;66;1984;-66
2021/07/24 11:22:17;;;;;;;;;;;;;;;;;;2143672;66;1513;-66
2021/07/24 11:24:44;;;;;;;;;;;;;;;;;;2142583;66;1701;-66
2021/07/24 11:27:10;;;;;;;;;;;;;;;;;;2143843;59;2067;-65
2021/07/24 11:29:38;;;;;;;;;;;;;;;;;;2143941;66;1684;-66
2021/07/24 11:32:03;;;;;;;;;;;;;;;;;;2143612;66;1546;-68
2021/07/24 11:34:30;;;;;;;;;;;;;;;;;;2143764;66;1509;-68
2021/07/24 11:36:55;;;;;;;;;;;;;;;;;;2141620;58;2099;-68
2021/07/24 11:39:28;;;;;;;;;;;;;;;;;;2142605;66;1944;-66
2021/07/24 11:41:54;;;;;;;;;;;;;;;;;;2143586;66;1443;-66
2021/07/24 11:44:37;;;;;;;;;;;;;;;;;;2139054;66;1550;-67
2021/07/24 11:47:03;;;;;;;;;;;;;;;;;;2141786;59;1581;-66
2021/07/24 11:49:31;;;;;;;;;;;;;;;;;;2143637;58;1520;-66
2021/07/24 11:51:57;;;;;;;;;;;;;;;;;;2141698;66;1700;-68
2021/07/24 11:54:33;;;;;;;;;;;;;;;;;;2141332;66;1498;-68
2021/07/24 11:56:59;;;;;;;;;;;;;;;;;;2141375;66;1585;-68
2021/07/24 11:59:28;;;;;;;;;;;;;;;;;;2145413;66;1940;-68
2021/07/24 12:01:53;;;;;;;;;;;;;;;;;;2142534;59;1681;-68
2021/07/24 12:04:19;;;;;;;;;;;;;;;;;;2144287;59;2538;-68
2021/07/24 12:06:52;;;;;;;;;;;;;;;;;;2144146;66;1242;-69
2021/07/24 12:09:18;;;;;;;;;;;;;;;;;;2143081;66;1630;-65
2021/07/24 12:12:10;;;;;;;;;;;;;;;;;;2142873;59;1430;-66
2021/07/24 12:14:35;;;;;;;;;;;;;;;;;;2143634;59;2367;-66
2021/07/24 12:17:07;;;;;;;;;;;;;;;;;;2143983;59;2937;-66
2021/07/24 12:19:39;;;;;;;;;;;;;;;;;;2143548;58;1975;-68
2021/07/24 12:22:18;;;;;;;;;;;;;;;;;;2139376;66;1673;-66
2021/07/24 12:24:44;;;;;;;;;;;;;;;;;;2144199;66;1366;-66
2021/07/24 12:27:10;;;;;;;;;;;;;;;;;;2142331;66;1340;-66
2021/07/24 12:29:45;;;;;;;;;;;;;;;;;;2144920;66;1489;-66
2021/07/24 12:32:11;;;;;;;;;;;;;;;;;;2141459;66;1547;-66
2021/07/24 12:34:36;;;;;;;;;;;;;;;;;;2141927;66;1574;-66
2021/07/24 12:37:02;;;;;;;;;;;;;;;;;;2141231;66;1607;-66
2021/07/24 12:39:34;;;;;;;;;;;;;;;;;;2141329;66;1934;-66
2021/07/24 12:42:06;;;;;;;;;;;;;;;;;;2141834;66;1689;-66
2021/07/24 12:44:32;;;;;;;;;;;;;;;;;;2143775;66;1706;-67
2021/07/24 12:47:13;;;;;;;;;;;;;;;;;;2143976;58;1397;-66
2021/07/24 12:49:41;;;;;;;;;;;;;;;;;;2144274;59;1554;-66
2021/07/24 12:52:25;;;;;;;;;;;;;;;;;;2141915;66;1824;-66
2021/07/24 12:55:00;;;;;;;;;;;;;;;;;;2142733;66;1668;-66
2021/07/24 12:57:25;;;;;;;;;;;;;;;;;;2141115;66;1536;-67
2021/07/24 12:59:51;;;;;;;;;;;;;;;;;;2142575;66;1939;-67
2021/07/24 13:02:18;;;;;;;;;;;;;;;;;;2144416;59;1456;-68
2021/07/24 13:04:43;;;;;;;;;;;;;;;;;;2142270;66;1477;-67
2021/07/24 13:07:09;;;;;;;;;;;;;;;;;;2141489;59;2018;-68
2021/07/24 13:09:34;;;;;;;;;;;;;;;;;;2144628;66;1501;-67
2021/07/24 13:11:59;;;;;;;;;;;;;;;;;;2139740;66;1709;-67
2021/07/24 13:14:24;;;;;;;;;;;;;;;;;;2145185;59;1470;-68
2021/07/24 13:16:49;;;;;;;;;;;;;;;;;;2142024;59;3500;-67
2021/07/24 13:19:16;;;;;;;;;;;;;;;;;;2143492;66;3195;-67
2021/07/24 13:21:41;;;;;;;;;;;;;;;;;;2141695;66;2183;-65
2021/07/24 13:24:08;;;;;;;;;;;;;;;;;;2142232;66;1760;-67
2021/07/24 13:29:13;;;;;;;;;;;;;;;;;;2141479;59;1600;-68
2021/07/24 13:31:38;;;;;;;;;;;;;;;;;;2142217;66;1861;-68
2021/07/24 13:34:04;;;;;;;;;;;;;;;;;;2141752;66;1526;-68
2021/07/24 13:36:29;;;;;;;;;;;;;;;;;;2142594;66;1588;-67
2021/07/24 13:38:55;;;;;;;;;;;;;;;;;;2141825;66;1987;-67
2021/07/24 13:41:20;;;;;;;;;;;;;;;;;;2140629;67;1464;-67
2021/07/24 13:43:45;;;;;;;;;;;;;;;;;;2142531;66;1553;-68
2021/07/24 13:46:10;;;;;;;;;;;;;;;;;;2141387;66;1547;-68
2021/07/24 13:48:35;;;;;;;;;;;;;;;;;;2142696;58;1716;-68
2021/07/24 13:51:01;;;;;;;;;;;;;;;;;;2144573;66;1698;-68
2021/07/24 13:53:26;;;;;;;;;;;;;;;;;;2143741;66;1504;-68
2021/07/24 13:55:51;;;;;;;;;;;;;;;;;;2140484;66;1474;-68
2021/07/24 13:58:16;;;;;;;;;;;;;;;;;;2142746;59;2112;-66
2021/07/24 14:00:42;;;;;;;;;;;;;;;;;;2143169;59;2004;-66
2021/07/24 14:03:09;;;;;;;;;;;;;;;;;;2141052;59;1554;-66
2021/07/24 14:05:34;;;;;;;;;;;;;;;;;;2141854;66;1508;-66
2021/07/24 14:07:59;;;;;;;;;;;;;;;;;;2142408;66;1715;-67
2021/07/24 14:10:24;;;;;;;;;;;;;;;;;;2141612;66;1580;-66
2021/07/24 14:12:49;;;;;;;;;;;;;;;;;;2143460;66;1418;-66
2021/07/24 14:15:15;;;;;;;;;;;;;;;;;;2143698;58;2833;-66
2021/07/24 14:17:40;;;;;;;;;;;;;;;;;;2142612;59;3140;-65
2021/07/24 14:20:06;;;;;;;;;;;;;;;;;;2141752;59;2967;-66
2021/07/24 14:22:31;;;;;;;;;;;;;;;;;;2143999;66;2368;-66
2021/07/24 14:24:56;;;;;;;;;;;;;;;;;;2142108;59;2331;-65
2021/07/24 14:27:21;;;;;;;;;;;;;;;;;;2145209;66;1828;-66
2021/07/24 14:29:47;;;;;;;;;;;;;;;;;;2142665;66;1865;-65
2021/07/24 14:32:12;;;;;;;;;;;;;;;;;;2144664;63;2437;-66
2021/07/24 14:34:37;;;;;;;;;;;;;;;;;;2143566;66;1878;-65
2021/07/24 14:37:03;;;;;;;;;;;;;;;;;;2144341;66;1690;-66
2021/07/24 14:39:28;;;;;;;;;;;;;;;;;;2144037;66;1987;-66
2021/07/24 14:41:53;;;;;;;;;;;;;;;;;;2142387;66;1695;-65
2021/07/24 14:44:18;;;;;;;;;;;;;;;;;;2141095;67;1476;-66
2021/07/24 14:46:44;;;;;;;;;;;;;;;;;;2140592;67;1519;-65
2021/07/24 14:49:09;;;;;;;;;;;;;;;;;;2144086;59;1648;-65
2021/07/24 14:51:34;;;;;;;;;;;;;;;;;;2142424;66;1659;-66
2021/07/24 14:54:00;;;;;;;;;;;;;;;;;;2142643;66;1803;-66
2021/07/24 14:56:27;;;;;;;;;;;;;;;;;;2142231;66;1771;-64
2021/07/24 14:58:52;;;;;;;;;;;;;;;;;;2137390;59;2555;-63
2021/07/24 15:01:18;;;;;;;;;;;;;;;;;;2144150;59;1468;-64
2021/07/24 15:03:44;;;;;;;;;;;;;;;;;;2143531;66;2318;-67
2021/07/24 15:06:10;;;;;;;;;;;;;;;;;;2144186;66;1809;-67
2021/07/24 15:08:36;;;;;;;;;;;;;;;;;;2139803;67;1482;-67
2021/07/24 15:11:05;;;;;;;;;;;;;;;;;;2141019;67;1488;-67
2021/07/24 15:13:31;;;;;;;;;;;;;;;;;;2140630;67;1391;-67
2021/07/24 15:15:56;;;;;;;;;;;;;;;;;;2141553;59;1448;-67
2021/07/24 15:18:22;;;;;;;;;;;;;;;;;;2142578;59;3062;-67
2021/07/24 15:20:47;;;;;;;;;;;;;;;;;;2141709;66;3585;-68
2021/07/24 15:23:12;;;;;;;;;;;;;;;;;;2140302;59;2122;-67
2021/07/24 15:25:38;;;;;;;;;;;;;;;;;;2142515;66;1984;-66
2021/07/24 15:28:03;;;;;;;;;;;;;;;;;;2139172;67;2322;-66
2021/07/24 15:30:28;;;;;;;;;;;;;;;;;;2141544;66;1665;-66
2021/07/24 15:32:53;;;;;;;;;;;;;;;;;;2143383;59;1929;-67
2021/07/24 15:35:20;;;;;;;;;;;;;;;;;;2142750;59;2469;-67
2021/07/24 15:37:45;;;;;;;;;;;;;;;;;;2143043;66;1468;-67
2021/07/24 15:40:10;;;;;;;;;;;;;;;;;;2142534;66;1914;-67
2021/07/24 15:42:35;;;;;;;;;;;;;;;;;;2142782;66;2447;-67
2021/07/24 15:45:01;;;;;;;;;;;;;;;;;;2142230;67;2319;-67
2021/07/24 15:47:26;;;;;;;;;;;;;;;;;;2141985;66;2369;-67
2021/07/24 15:49:51;;;;;;;;;;;;;;;;;;2142717;59;1919;-68
2021/07/24 15:52:16;;;;;;;;;;;;;;;;;;2142434;66;1748;-69
2021/07/24 15:54:41;;;;;;;;;;;;;;;;;;2143357;66;1596;-68
2021/07/24 15:57:07;;;;;;;;;;;;;;;;;;2144184;66;1772;-67
2021/07/24 15:59:32;;;;;;;;;;;;;;;;;;2143766;66;2017;-68
2021/07/24 16:01:57;;;;;;;;;;;;;;;;;;2142105;59;1661;-68
2021/07/24 16:04:23;;;;;;;;;;;;;;;;;;2142132;66;1645;-68
2021/07/24 16:06:48;;;;;;;;;;;;;;;;;;2139045;66;1693;-67
2021/07/24 16:09:13;;;;;;;;;;;;;;;;;;2143076;59;2159;-67
2021/07/24 16:11:38;;;;;;;;;;;;;;;;;;2142113;66;1924;-68
2021/07/24 16:14:03;;;;;;;;;;;;;;;;;;2141971;59;1735;-67
2021/07/24 16:16:29;;;;;;;;;;;;;;;;;;2142388;66;1555;-68
2021/07/24 16:18:54;;;;;;;;;;;;;;;;;;2141632;66;2822;-68
2021/07/24 16:21:20;;;;;;;;;;;;;;;;;;2142793;59;3281;-68
2021/07/24 16:23:45;;;;;;;;;;;;;;;;;;2142073;59;2374;-66
2021/07/24 16:26:10;;;;;;;;;;;;;;;;;;2142109;66;1803;-68
2021/07/24 16:28:35;;;;;;;;;;;;;;;;;;2143191;66;1806;-68
2021/07/24 16:31:01;;;;;;;;;;;;;;;;;;2143627;59;2151;-69
2021/07/24 16:33:28;;;;;;;;;;;;;;;;;;2142474;66;1834;-69
2021/07/24 16:35:53;;;;;;;;;;;;;;;;;;2140950;66;1480;-68
2021/07/24 16:38:18;;;;;;;;;;;;;;;;;;2143166;66;1574;-67
2021/07/24 16:40:43;;;;;;;;;;;;;;;;;;2140506;66;1927;-67
2021/07/24 16:43:09;;;;;;;;;;;;;;;;;;2140689;66;1630;-68
2021/07/24 16:45:36;;;;;;;;;;;;;;;;;;2141418;66;2151;-69
2021/07/24 16:48:01;;;;;;;;;;;;;;;;;;2142992;66;1513;-68
2021/07/24 16:50:26;;;;;;;;;;;;;;;;;;2142328;59;1737;-68
2021/07/24 16:52:54;;;;;;;;;;;;;;;;;;2143141;66;1570;-69
2021/07/24 16:55:20;;;;;;;;;;;;;;;;;;2141472;66;1684;-68
2021/07/24 16:57:45;;;;;;;;;;;;;;;;;;2141639;66;1487;-68
2021/07/24 17:00:10;;;;;;;;;;;;;;;;;;2142094;66;1925;-68
2021/07/24 17:02:36;;;;;;;;;;;;;;;;;;2142002;59;1717;-69